Terminal Aerodrome Forecast
Issued by NWS

Home | Current Version | Previous Version | Text Only | Print | Product List | Glossary On
Versions: 1 2 3 4 5 6 7 8 9 10 11 12 13
433
FTUS42 KJAX 232320
TAFVQQ
TAF
KVQQ 232320Z 2400/2424 13010KT P6SM SCT060 SCT250
     FM240200 VRB04KT P6SM FEW030 SCT250
     FM240700 00000KT 5SM BR FEW020 SCT250
     FM241400 VRB05KT P6SM FEW030 SCT250
     FM242100 14010KT P6SM VCTS SCT050CB SCT250=

USA.gov is the U.S. government's official web portal to all federal, state and local government web resources and services.